sensor_id;sensor_type;location;lat;lon;timestamp;P1;durP1;ratioP1;P2;durP2;ratioP2
21501;SDS011;27639;48.674;9.242;2023-04-03T00:00:17;7.05;;;3.28;;
21501;SDS011;27639;48.674;9.242;2023-04-03T00:02:43;7.00;;;3.10;;
21501;SDS011;27639;48.674;9.242;2023-04-03T00:05:08;5.05;;;3.00;;
21501;SDS011;27639;48.674;9.242;2023-04-03T00:07:34;4.60;;;3.10;;
21501;SDS011;27639;48.674;9.242;2023-04-03T00:10:00;6.00;;;3.10;;
21501;SDS011;27639;48.674;9.242;2023-04-03T00:12:25;5.57;;;3.35;;
21501;SDS011;27639;48.674;9.242;2023-04-03T00:14:51;4.43;;;3.40;;
21501;SDS011;27639;48.674;9.242;2023-04-03T00:17:16;5.97;;;3.08;;
21501;SDS011;27639;48.674;9.242;2023-04-03T00:19:42;5.60;;;3.05;;
21501;SDS011;27639;48.674;9.242;2023-04-03T00:22:07;5.32;;;3.00;;
21501;SDS011;27639;48.674;9.242;2023-04-03T00:24:33;4.57;;;2.70;;
21501;SDS011;27639;48.674;9.242;2023-04-03T00:26:59;6.18;;;3.15;;
21501;SDS011;27639;48.674;9.242;2023-04-03T00:29:24;5.07;;;3.03;;
21501;SDS011;27639;48.674;9.242;2023-04-03T00:31:50;5.13;;;3.00;;
21501;SDS011;27639;48.674;9.242;2023-04-03T00:34:15;5.78;;;3.08;;
21501;SDS011;27639;48.674;9.242;2023-04-03T00:36:41;5.63;;;3.17;;
21501;SDS011;27639;48.674;9.242;2023-04-03T00:39:06;5.32;;;3.28;;
21501;SDS011;27639;48.674;9.242;2023-04-03T00:41:32;4.80;;;3.17;;
21501;SDS011;27639;48.674;9.242;2023-04-03T00:43:58;5.35;;;3.17;;
21501;SDS011;27639;48.674;9.242;2023-04-03T00:46:23;4.90;;;3.30;;
21501;SDS011;27639;48.674;9.242;2023-04-03T00:48:49;4.88;;;3.15;;
21501;SDS011;27639;48.674;9.242;2023-04-03T00:51:22;5.18;;;3.20;;
21501;SDS011;27639;48.674;9.242;2023-04-03T00:53:50;5.18;;;2.65;;
21501;SDS011;27639;48.674;9.242;2023-04-03T00:56:23;4.35;;;3.08;;
21501;SDS011;27639;48.674;9.242;2023-04-03T00:58:57;4.13;;;2.75;;
21501;SDS011;27639;48.674;9.242;2023-04-03T01:03:53;4.70;;;2.90;;
21501;SDS011;27639;48.674;9.242;2023-04-03T01:06:21;5.07;;;2.90;;
21501;SDS011;27639;48.674;9.242;2023-04-03T01:08:51;7.25;;;3.03;;
21501;SDS011;27639;48.674;9.242;2023-04-03T01:11:16;4.97;;;3.30;;
21501;SDS011;27639;48.674;9.242;2023-04-03T01:13:42;5.13;;;3.05;;
21501;SDS011;27639;48.674;9.242;2023-04-03T01:16:08;4.55;;;2.63;;
21501;SDS011;27639;48.674;9.242;2023-04-03T01:18:34;4.47;;;2.92;;
21501;SDS011;27639;48.674;9.242;2023-04-03T01:26:18;6.05;;;3.05;;
21501;SDS011;27639;48.674;9.242;2023-04-03T01:28:44;4.13;;;2.78;;
21501;SDS011;27639;48.674;9.242;2023-04-03T01:31:13;6.93;;;3.40;;
21501;SDS011;27639;48.674;9.242;2023-04-03T01:33:40;4.72;;;3.00;;
21501;SDS011;27639;48.674;9.242;2023-04-03T01:36:06;5.80;;;3.20;;
21501;SDS011;27639;48.674;9.242;2023-04-03T01:38:32;5.63;;;3.10;;
21501;SDS011;27639;48.674;9.242;2023-04-03T01:40:58;4.75;;;2.63;;
21501;SDS011;27639;48.674;9.242;2023-04-03T01:43:24;5.03;;;2.72;;
21501;SDS011;27639;48.674;9.242;2023-04-03T01:45:50;6.80;;;3.20;;
21501;SDS011;27639;48.674;9.242;2023-04-03T01:48:17;6.10;;;3.17;;
21501;SDS011;27639;48.674;9.242;2023-04-03T01:50:43;5.70;;;3.03;;
21501;SDS011;27639;48.674;9.242;2023-04-03T01:53:08;4.40;;;2.70;;
21501;SDS011;27639;48.674;9.242;2023-04-03T01:55:34;6.93;;;2.80;;
21501;SDS011;27639;48.674;9.242;2023-04-03T01:57:59;4.78;;;3.00;;
21501;SDS011;27639;48.674;9.242;2023-04-03T02:00:25;4.80;;;3.25;;
21501;SDS011;27639;48.674;9.242;2023-04-03T02:02:51;4.85;;;3.00;;
21501;SDS011;27639;48.674;9.242;2023-04-03T02:05:17;6.25;;;3.20;;
21501;SDS011;27639;48.674;9.242;2023-04-03T02:07:42;5.10;;;3.17;;
21501;SDS011;27639;48.674;9.242;2023-04-03T02:10:08;4.93;;;3.10;;
21501;SDS011;27639;48.674;9.242;2023-04-03T02:12:34;5.30;;;2.95;;
21501;SDS011;27639;48.674;9.242;2023-04-03T02:14:59;5.07;;;2.70;;
21501;SDS011;27639;48.674;9.242;2023-04-03T02:17:25;4.55;;;3.20;;
21501;SDS011;27639;48.674;9.242;2023-04-03T02:19:51;4.03;;;2.63;;
21501;SDS011;27639;48.674;9.242;2023-04-03T02:22:17;5.55;;;2.80;;
21501;SDS011;27639;48.674;9.242;2023-04-03T02:24:43;4.45;;;2.83;;
21501;SDS011;27639;48.674;9.242;2023-04-03T02:27:08;4.95;;;3.00;;
21501;SDS011;27639;48.674;9.242;2023-04-03T02:29:34;5.07;;;3.40;;
21501;SDS011;27639;48.674;9.242;2023-04-03T02:32:00;4.93;;;3.03;;
21501;SDS011;27639;48.674;9.242;2023-04-03T02:34:25;5.28;;;3.20;;
21501;SDS011;27639;48.674;9.242;2023-04-03T02:36:51;4.82;;;3.10;;
21501;SDS011;27639;48.674;9.242;2023-04-03T02:39:16;5.57;;;3.00;;
21501;SDS011;27639;48.674;9.242;2023-04-03T02:41:42;4.00;;;2.78;;
21501;SDS011;27639;48.674;9.242;2023-04-03T02:44:08;4.38;;;2.80;;
21501;SDS011;27639;48.674;9.242;2023-04-03T02:46:35;5.95;;;2.90;;
21501;SDS011;27639;48.674;9.242;2023-04-03T02:49:00;4.18;;;2.97;;
21501;SDS011;27639;48.674;9.242;2023-04-03T02:51:26;5.85;;;2.85;;
21501;SDS011;27639;48.674;9.242;2023-04-03T02:53:51;5.78;;;3.17;;
21501;SDS011;27639;48.674;9.242;2023-04-03T02:56:17;4.78;;;2.58;;
21501;SDS011;27639;48.674;9.242;2023-04-03T02:58:44;5.65;;;2.80;;
21501;SDS011;27639;48.674;9.242;2023-04-03T03:01:10;5.35;;;3.20;;
21501;SDS011;27639;48.674;9.242;2023-04-03T03:03:35;4.47;;;2.53;;
21501;SDS011;27639;48.674;9.242;2023-04-03T03:06:05;5.32;;;2.90;;
21501;SDS011;27639;48.674;9.242;2023-04-03T03:08:30;5.30;;;2.75;;
21501;SDS011;27639;48.674;9.242;2023-04-03T03:10:56;5.00;;;3.20;;
21501;SDS011;27639;48.674;9.242;2023-04-03T03:13:22;4.55;;;2.92;;
21501;SDS011;27639;48.674;9.242;2023-04-03T03:15:47;4.25;;;2.75;;
21501;SDS011;27639;48.674;9.242;2023-04-03T03:18:13;5.32;;;3.33;;
21501;SDS011;27639;48.674;9.242;2023-04-03T03:20:39;4.57;;;2.92;;
21501;SDS011;27639;48.674;9.242;2023-04-03T03:23:04;4.25;;;2.85;;
21501;SDS011;27639;48.674;9.242;2023-04-03T03:25:30;5.32;;;3.33;;
21501;SDS011;27639;48.674;9.242;2023-04-03T03:27:56;4.88;;;3.10;;
21501;SDS011;27639;48.674;9.242;2023-04-03T03:30:21;7.57;;;2.80;;
21501;SDS011;27639;48.674;9.242;2023-04-03T03:32:47;5.22;;;3.22;;
21501;SDS011;27639;48.674;9.242;2023-04-03T03:35:12;5.13;;;3.22;;
21501;SDS011;27639;48.674;9.242;2023-04-03T03:37:38;5.07;;;3.28;;
21501;SDS011;27639;48.674;9.242;2023-04-03T03:40:04;5.65;;;2.78;;
21501;SDS011;27639;48.674;9.242;2023-04-03T03:42:30;4.57;;;2.65;;
21501;SDS011;27639;48.674;9.242;2023-04-03T03:44:56;4.95;;;2.70;;
21501;SDS011;27639;48.674;9.242;2023-04-03T03:47:21;4.53;;;2.95;;
21501;SDS011;27639;48.674;9.242;2023-04-03T03:49:47;5.13;;;3.05;;
21501;SDS011;27639;48.674;9.242;2023-04-03T03:52:13;4.22;;;2.53;;
21501;SDS011;27639;48.674;9.242;2023-04-03T03:54:38;4.40;;;2.72;;
21501;SDS011;27639;48.674;9.242;2023-04-03T03:57:04;5.18;;;3.00;;
21501;SDS011;27639;48.674;9.242;2023-04-03T03:59:30;4.43;;;2.42;;
21501;SDS011;27639;48.674;9.242;2023-04-03T04:01:55;4.20;;;2.20;;
21501;SDS011;27639;48.674;9.242;2023-04-03T04:04:21;4.80;;;2.85;;
21501;SDS011;27639;48.674;9.242;2023-04-03T04:06:46;5.28;;;2.70;;
21501;SDS011;27639;48.674;9.242;2023-04-03T04:09:12;4.65;;;2.83;;
21501;SDS011;27639;48.674;9.242;2023-04-03T04:11:38;5.45;;;2.47;;
21501;SDS011;27639;48.674;9.242;2023-04-03T04:14:05;4.30;;;2.70;;
21501;SDS011;27639;48.674;9.242;2023-04-03T04:16:31;4.47;;;2.50;;
21501;SDS011;27639;48.674;9.242;2023-04-03T04:18:57;4.90;;;2.75;;
21501;SDS011;27639;48.674;9.242;2023-04-03T04:21:22;5.30;;;2.72;;
21501;SDS011;27639;48.674;9.242;2023-04-03T04:23:48;4.68;;;2.75;;
21501;SDS011;27639;48.674;9.242;2023-04-03T04:26:13;5.85;;;2.80;;
21501;SDS011;27639;48.674;9.242;2023-04-03T04:28:39;6.97;;;3.30;;
21501;SDS011;27639;48.674;9.242;2023-04-03T04:31:04;5.13;;;3.03;;
21501;SDS011;27639;48.674;9.242;2023-04-03T04:33:30;6.22;;;2.90;;
21501;SDS011;27639;48.674;9.242;2023-04-03T04:35:55;4.22;;;3.03;;
21501;SDS011;27639;48.674;9.242;2023-04-03T04:38:21;5.47;;;3.28;;
21501;SDS011;27639;48.674;9.242;2023-04-03T04:40:47;4.80;;;2.92;;
21501;SDS011;27639;48.674;9.242;2023-04-03T04:43:13;6.00;;;3.42;;
21501;SDS011;27639;48.674;9.242;2023-04-03T04:45:40;4.95;;;3.00;;
21501;SDS011;27639;48.674;9.242;2023-04-03T04:48:06;5.30;;;3.20;;
21501;SDS011;27639;48.674;9.242;2023-04-03T04:50:31;5.93;;;2.97;;
21501;SDS011;27639;48.674;9.242;2023-04-03T04:52:57;5.82;;;2.95;;
21501;SDS011;27639;48.674;9.242;2023-04-03T04:55:22;4.20;;;2.42;;
21501;SDS011;27639;48.674;9.242;2023-04-03T04:57:48;5.00;;;2.60;;
21501;SDS011;27639;48.674;9.242;2023-04-03T05:00:14;3.85;;;2.47;;
21501;SDS011;27639;48.674;9.242;2023-04-03T05:02:40;6.13;;;3.22;;
21501;SDS011;27639;48.674;9.242;2023-04-03T05:05:06;5.57;;;2.90;;
21501;SDS011;27639;48.674;9.242;2023-04-03T05:07:32;4.55;;;2.83;;
21501;SDS011;27639;48.674;9.242;2023-04-03T05:09:58;4.63;;;2.58;;
21501;SDS011;27639;48.674;9.242;2023-04-03T05:12:23;4.30;;;2.30;;
21501;SDS011;27639;48.674;9.242;2023-04-03T05:14:49;3.47;;;2.28;;
21501;SDS011;27639;48.674;9.242;2023-04-03T05:17:15;4.30;;;2.20;;
21501;SDS011;27639;48.674;9.242;2023-04-03T05:19:40;4.82;;;2.60;;
21501;SDS011;27639;48.674;9.242;2023-04-03T05:22:06;4.55;;;2.47;;
21501;SDS011;27639;48.674;9.242;2023-04-03T05:24:31;5.65;;;2.83;;
21501;SDS011;27639;48.674;9.242;2023-04-03T05:26:57;6.03;;;2.88;;
21501;SDS011;27639;48.674;9.242;2023-04-03T05:29:23;5.13;;;2.75;;
21501;SDS011;27639;48.674;9.242;2023-04-03T05:31:49;4.32;;;2.90;;
21501;SDS011;27639;48.674;9.242;2023-04-03T05:34:15;4.32;;;2.38;;
21501;SDS011;27639;48.674;9.242;2023-04-03T05:36:41;5.10;;;2.60;;
21501;SDS011;27639;48.674;9.242;2023-04-03T05:39:07;3.97;;;2.42;;
21501;SDS011;27639;48.674;9.242;2023-04-03T05:41:33;4.53;;;2.78;;
21501;SDS011;27639;48.674;9.242;2023-04-03T05:43:58;4.75;;;2.63;;
21501;SDS011;27639;48.674;9.242;2023-04-03T05:46:24;4.47;;;2.55;;
21501;SDS011;27639;48.674;9.242;2023-04-03T05:48:50;4.47;;;2.38;;
21501;SDS011;27639;48.674;9.242;2023-04-03T05:51:20;5.40;;;2.63;;
21501;SDS011;27639;48.674;9.242;2023-04-03T05:53:48;4.57;;;2.38;;
21501;SDS011;27639;48.674;9.242;2023-04-03T05:56:17;4.32;;;2.50;;
21501;SDS011;27639;48.674;9.242;2023-04-03T05:58:42;5.40;;;2.40;;
21501;SDS011;27639;48.674;9.242;2023-04-03T06:01:08;4.88;;;2.55;;
21501;SDS011;27639;48.674;9.242;2023-04-03T06:03:33;5.68;;;2.35;;
21501;SDS011;27639;48.674;9.242;2023-04-03T06:06:01;4.18;;;2.45;;
21501;SDS011;27639;48.674;9.242;2023-04-03T06:08:28;4.10;;;2.40;;
21501;SDS011;27639;48.674;9.242;2023-04-03T06:10:54;5.03;;;2.50;;
21501;SDS011;27639;48.674;9.242;2023-04-03T06:13:21;4.72;;;2.38;;
21501;SDS011;27639;48.674;9.242;2023-04-03T06:15:46;3.95;;;2.50;;
21501;SDS011;27639;48.674;9.242;2023-04-03T06:18:12;3.88;;;2.17;;
21501;SDS011;27639;48.674;9.242;2023-04-03T06:20:38;3.88;;;2.42;;
21501;SDS011;27639;48.674;9.242;2023-04-03T06:23:03;3.47;;;2.00;;
21501;SDS011;27639;48.674;9.242;2023-04-03T06:25:29;3.42;;;2.00;;
21501;SDS011;27639;48.674;9.242;2023-04-03T06:27:56;4.57;;;2.47;;
21501;SDS011;27639;48.674;9.242;2023-04-03T06:30:22;3.30;;;2.10;;
21501;SDS011;27639;48.674;9.242;2023-04-03T06:32:48;4.78;;;2.17;;
21501;SDS011;27639;48.674;9.242;2023-04-03T06:35:13;5.50;;;2.30;;
21501;SDS011;27639;48.674;9.242;2023-04-03T06:37:39;3.50;;;2.05;;
21501;SDS011;27639;48.674;9.242;2023-04-03T06:40:04;5.40;;;2.03;;
21501;SDS011;27639;48.674;9.242;2023-04-03T06:42:31;4.90;;;2.25;;
21501;SDS011;27639;48.674;9.242;2023-04-03T06:44:56;5.20;;;2.30;;
21501;SDS011;27639;48.674;9.242;2023-04-03T06:47:22;3.78;;;2.33;;
21501;SDS011;27639;48.674;9.242;2023-04-03T06:49:47;4.68;;;2.55;;
21501;SDS011;27639;48.674;9.242;2023-04-03T06:52:13;3.92;;;2.50;;
21501;SDS011;27639;48.674;9.242;2023-04-03T06:54:39;4.90;;;2.80;;
21501;SDS011;27639;48.674;9.242;2023-04-03T06:57:05;5.63;;;3.00;;
21501;SDS011;27639;48.674;9.242;2023-04-03T06:59:31;4.22;;;2.40;;
21501;SDS011;27639;48.674;9.242;2023-04-03T07:01:57;6.07;;;2.70;;
21501;SDS011;27639;48.674;9.242;2023-04-03T07:04:24;3.45;;;2.22;;
21501;SDS011;27639;48.674;9.242;2023-04-03T07:06:51;4.25;;;2.67;;
21501;SDS011;27639;48.674;9.242;2023-04-03T07:09:17;4.88;;;2.55;;
21501;SDS011;27639;48.674;9.242;2023-04-03T07:11:43;4.22;;;2.63;;
21501;SDS011;27639;48.674;9.242;2023-04-03T07:14:09;4.32;;;2.25;;
21501;SDS011;27639;48.674;9.242;2023-04-03T07:16:35;4.15;;;2.38;;
21501;SDS011;27639;48.674;9.242;2023-04-03T07:19:00;4.25;;;2.60;;
21501;SDS011;27639;48.674;9.242;2023-04-03T07:21:26;4.63;;;2.28;;
21501;SDS011;27639;48.674;9.242;2023-04-03T07:23:53;4.05;;;2.35;;
21501;SDS011;27639;48.674;9.242;2023-04-03T07:26:18;3.97;;;2.30;;
21501;SDS011;27639;48.674;9.242;2023-04-03T07:28:45;4.35;;;2.25;;
21501;SDS011;27639;48.674;9.242;2023-04-03T07:31:13;5.10;;;2.53;;
21501;SDS011;27639;48.674;9.242;2023-04-03T07:33:42;4.38;;;2.53;;
21501;SDS011;27639;48.674;9.242;2023-04-03T07:36:08;3.88;;;2.13;;
21501;SDS011;27639;48.674;9.242;2023-04-03T07:38:35;6.30;;;2.25;;
21501;SDS011;27639;48.674;9.242;2023-04-03T07:41:01;4.68;;;2.30;;
21501;SDS011;27639;48.674;9.242;2023-04-03T07:43:28;6.10;;;2.25;;
21501;SDS011;27639;48.674;9.242;2023-04-03T07:45:53;4.57;;;2.33;;
21501;SDS011;27639;48.674;9.242;2023-04-03T07:48:20;5.03;;;2.20;;
21501;SDS011;27639;48.674;9.242;2023-04-03T07:50:47;4.72;;;2.40;;
21501;SDS011;27639;48.674;9.242;2023-04-03T07:53:13;3.90;;;2.22;;
21501;SDS011;27639;48.674;9.242;2023-04-03T07:55:39;4.95;;;2.33;;
21501;SDS011;27639;48.674;9.242;2023-04-03T07:58:11;4.30;;;2.45;;
21501;SDS011;27639;48.674;9.242;2023-04-03T08:00:39;4.90;;;2.50;;
21501;SDS011;27639;48.674;9.242;2023-04-03T08:03:06;4.57;;;2.50;;
21501;SDS011;27639;48.674;9.242;2023-04-03T08:05:36;3.85;;;2.15;;
21501;SDS011;27639;48.674;9.242;2023-04-03T08:08:02;4.93;;;2.45;;
21501;SDS011;27639;48.674;9.242;2023-04-03T08:10:29;5.20;;;2.53;;
21501;SDS011;27639;48.674;9.242;2023-04-03T08:12:55;4.03;;;2.47;;
21501;SDS011;27639;48.674;9.242;2023-04-03T08:15:21;4.22;;;2.33;;
21501;SDS011;27639;48.674;9.242;2023-04-03T08:17:47;4.60;;;2.60;;
21501;SDS011;27639;48.674;9.242;2023-04-03T08:20:12;5.20;;;2.75;;
21501;SDS011;27639;48.674;9.242;2023-04-03T08:22:38;4.55;;;2.80;;
21501;SDS011;27639;48.674;9.242;2023-04-03T08:25:04;4.35;;;2.60;;
21501;SDS011;27639;48.674;9.242;2023-04-03T08:27:30;3.80;;;2.45;;
21501;SDS011;27639;48.674;9.242;2023-04-03T08:29:56;4.25;;;2.65;;
21501;SDS011;27639;48.674;9.242;2023-04-03T08:32:22;4.00;;;2.45;;
21501;SDS011;27639;48.674;9.242;2023-04-03T08:34:48;6.05;;;2.70;;
21501;SDS011;27639;48.674;9.242;2023-04-03T08:37:13;5.28;;;2.50;;
21501;SDS011;27639;48.674;9.242;2023-04-03T08:39:41;5.07;;;2.60;;
21501;SDS011;27639;48.674;9.242;2023-04-03T08:42:19;4.35;;;2.40;;
21501;SDS011;27639;48.674;9.242;2023-04-03T08:45:10;4.13;;;2.58;;
21501;SDS011;27639;48.674;9.242;2023-04-03T08:50:32;6.03;;;2.40;;
21501;SDS011;27639;48.674;9.242;2023-04-03T08:53:02;5.68;;;2.40;;
21501;SDS011;27639;48.674;9.242;2023-04-03T08:55:33;4.18;;;2.65;;
21501;SDS011;27639;48.674;9.242;2023-04-03T09:00:43;5.38;;;2.75;;
21501;SDS011;27639;48.674;9.242;2023-04-03T09:03:16;4.80;;;2.95;;
21501;SDS011;27639;48.674;9.242;2023-04-03T09:05:52;4.53;;;2.67;;
21501;SDS011;27639;48.674;9.242;2023-04-03T09:13:43;5.82;;;2.85;;
21501;SDS011;27639;48.674;9.242;2023-04-03T09:24:50;4.97;;;2.33;;
21501;SDS011;27639;48.674;9.242;2023-04-03T09:27:23;6.18;;;2.70;;
21501;SDS011;27639;48.674;9.242;2023-04-03T09:29:49;4.70;;;2.60;;
21501;SDS011;27639;48.674;9.242;2023-04-03T09:34:49;4.57;;;2.50;;
21501;SDS011;27639;48.674;9.242;2023-04-03T09:37:32;4.18;;;2.58;;
21501;SDS011;27639;48.674;9.242;2023-04-03T09:40:02;5.25;;;2.20;;
21501;SDS011;27639;48.674;9.242;2023-04-03T09:42:29;3.92;;;2.40;;
21501;SDS011;27639;48.674;9.242;2023-04-03T09:45:05;4.07;;;2.08;;
21501;SDS011;27639;48.674;9.242;2023-04-03T09:47:46;4.25;;;2.08;;
21501;SDS011;27639;48.674;9.242;2023-04-03T09:52:43;4.20;;;2.03;;
21501;SDS011;27639;48.674;9.242;2023-04-03T09:55:31;3.00;;;1.70;;
21501;SDS011;27639;48.674;9.242;2023-04-03T09:58:03;2.97;;;1.48;;
21501;SDS011;27639;48.674;9.242;2023-04-03T10:00:53;4.43;;;1.80;;
21501;SDS011;27639;48.674;9.242;2023-04-03T10:03:38;3.83;;;1.65;;
21501;SDS011;27639;48.674;9.242;2023-04-03T10:06:23;3.55;;;2.05;;
21501;SDS011;27639;48.674;9.242;2023-04-03T10:08:59;4.68;;;2.05;;
21501;SDS011;27639;48.674;9.242;2023-04-03T10:11:27;3.33;;;1.80;;
21501;SDS011;27639;48.674;9.242;2023-04-03T10:13:58;3.88;;;1.52;;
21501;SDS011;27639;48.674;9.242;2023-04-03T10:16:26;3.42;;;1.60;;
21501;SDS011;27639;48.674;9.242;2023-04-03T10:24:21;4.05;;;2.10;;
21501;SDS011;27639;48.674;9.242;2023-04-03T10:29:49;3.60;;;2.00;;
21501;SDS011;27639;48.674;9.242;2023-04-03T10:35:50;3.10;;;1.63;;
21501;SDS011;27639;48.674;9.242;2023-04-03T10:45:51;4.82;;;1.83;;
21501;SDS011;27639;48.674;9.242;2023-04-03T10:56:25;3.20;;;1.70;;
21501;SDS011;27639;48.674;9.242;2023-04-03T11:01:46;3.85;;;1.70;;
21501;SDS011;27639;48.674;9.242;2023-04-03T11:04:16;3.80;;;1.95;;
21501;SDS011;27639;48.674;9.242;2023-04-03T11:07:00;5.32;;;2.22;;
21501;SDS011;27639;48.674;9.242;2023-04-03T11:09:30;3.38;;;1.73;;
21501;SDS011;27639;48.674;9.242;2023-04-03T11:12:08;4.03;;;2.10;;
21501;SDS011;27639;48.674;9.242;2023-04-03T11:14:41;5.30;;;2.00;;
21501;SDS011;27639;48.674;9.242;2023-04-03T11:17:50;5.85;;;2.30;;
21501;SDS011;27639;48.674;9.242;2023-04-03T11:20:14;5.13;;;2.13;;
21501;SDS011;27639;48.674;9.242;2023-04-03T11:22:42;5.35;;;2.30;;
21501;SDS011;27639;48.674;9.242;2023-04-03T11:25:29;3.05;;;1.77;;
21501;SDS011;27639;48.674;9.242;2023-04-03T11:33:11;3.78;;;2.17;;
21501;SDS011;27639;48.674;9.242;2023-04-03T11:35:58;5.38;;;1.77;;
21501;SDS011;27639;48.674;9.242;2023-04-03T11:38:29;4.32;;;1.65;;
21501;SDS011;27639;48.674;9.242;2023-04-03T11:41:01;4.60;;;1.88;;
21501;SDS011;27639;48.674;9.242;2023-04-03T11:43:28;4.03;;;1.70;;
21501;SDS011;27639;48.674;9.242;2023-04-03T11:45:57;3.40;;;1.77;;
21501;SDS011;27639;48.674;9.242;2023-04-03T11:50:54;8.65;;;2.10;;
21501;SDS011;27639;48.674;9.242;2023-04-03T11:56:03;5.50;;;1.80;;
21501;SDS011;27639;48.674;9.242;2023-04-03T12:01:51;3.63;;;1.58;;
21501;SDS011;27639;48.674;9.242;2023-04-03T12:04:20;3.83;;;1.95;;
21501;SDS011;27639;48.674;9.242;2023-04-03T12:17:48;3.55;;;1.95;;
21501;SDS011;27639;48.674;9.242;2023-04-03T12:23:32;3.17;;;1.60;;
21501;SDS011;27639;48.674;9.242;2023-04-03T12:26:00;3.78;;;1.70;;
21501;SDS011;27639;48.674;9.242;2023-04-03T12:28:29;3.95;;;1.52;;
21501;SDS011;27639;48.674;9.242;2023-04-03T12:31:01;3.03;;;1.60;;
21501;SDS011;27639;48.674;9.242;2023-04-03T12:33:43;3.38;;;1.48;;
21501;SDS011;27639;48.674;9.242;2023-04-03T12:42:24;3.40;;;1.55;;
21501;SDS011;27639;48.674;9.242;2023-04-03T12:45:22;3.78;;;2.17;;
21501;SDS011;27639;48.674;9.242;2023-04-03T12:50:28;4.30;;;1.85;;
21501;SDS011;27639;48.674;9.242;2023-04-03T12:53:10;3.60;;;1.60;;
21501;SDS011;27639;48.674;9.242;2023-04-03T12:55:52;4.07;;;1.90;;
21501;SDS011;27639;48.674;9.242;2023-04-03T12:58:23;4.68;;;1.70;;
21501;SDS011;27639;48.674;9.242;2023-04-03T13:01:25;3.28;;;1.38;;
21501;SDS011;27639;48.674;9.242;2023-04-03T13:03:49;3.17;;;1.63;;
21501;SDS011;27639;48.674;9.242;2023-04-03T13:06:21;4.55;;;1.70;;
21501;SDS011;27639;48.674;9.242;2023-04-03T13:08:54;4.80;;;2.35;;
21501;SDS011;27639;48.674;9.242;2023-04-03T13:11:25;3.80;;;1.60;;
21501;SDS011;27639;48.674;9.242;2023-04-03T13:16:21;3.67;;;1.88;;
21501;SDS011;27639;48.674;9.242;2023-04-03T13:18:50;4.00;;;1.90;;
21501;SDS011;27639;48.674;9.242;2023-04-03T13:21:19;4.90;;;1.83;;
21501;SDS011;27639;48.674;9.242;2023-04-03T13:23:52;3.75;;;1.92;;
21501;SDS011;27639;48.674;9.242;2023-04-03T13:26:22;4.60;;;1.83;;
21501;SDS011;27639;48.674;9.242;2023-04-03T13:28:49;4.25;;;1.70;;
21501;SDS011;27639;48.674;9.242;2023-04-03T13:31:19;3.35;;;1.67;;
21501;SDS011;27639;48.674;9.242;2023-04-03T13:34:04;4.50;;;2.10;;
21501;SDS011;27639;48.674;9.242;2023-04-03T13:36:36;4.57;;;2.10;;
21501;SDS011;27639;48.674;9.242;2023-04-03T13:41:36;3.67;;;1.80;;
21501;SDS011;27639;48.674;9.242;2023-04-03T13:46:51;4.65;;;1.83;;
21501;SDS011;27639;48.674;9.242;2023-04-03T13:49:20;4.78;;;1.90;;
21501;SDS011;27639;48.674;9.242;2023-04-03T13:51:51;3.17;;;1.63;;
21501;SDS011;27639;48.674;9.242;2023-04-03T13:57:00;3.95;;;1.88;;
21501;SDS011;27639;48.674;9.242;2023-04-03T13:59:28;3.72;;;1.70;;
21501;SDS011;27639;48.674;9.242;2023-04-03T14:04:28;3.47;;;1.60;;
21501;SDS011;27639;48.674;9.242;2023-04-03T14:07:08;3.15;;;1.65;;
21501;SDS011;27639;48.674;9.242;2023-04-03T14:09:35;5.18;;;2.00;;
21501;SDS011;27639;48.674;9.242;2023-04-03T14:12:04;5.05;;;2.33;;
21501;SDS011;27639;48.674;9.242;2023-04-03T14:14:33;4.78;;;1.88;;
21501;SDS011;27639;48.674;9.242;2023-04-03T14:17:01;3.00;;;1.77;;
21501;SDS011;27639;48.674;9.242;2023-04-03T14:19:35;4.72;;;1.90;;
21501;SDS011;27639;48.674;9.242;2023-04-03T14:22:05;4.25;;;1.80;;
21501;SDS011;27639;48.674;9.242;2023-04-03T14:24:42;4.82;;;1.70;;
21501;SDS011;27639;48.674;9.242;2023-04-03T14:27:16;4.45;;;1.92;;
21501;SDS011;27639;48.674;9.242;2023-04-03T14:32:10;3.42;;;1.60;;
21501;SDS011;27639;48.674;9.242;2023-04-03T14:34:38;3.65;;;1.95;;
21501;SDS011;27639;48.674;9.242;2023-04-03T14:37:04;3.50;;;2.10;;
21501;SDS011;27639;48.674;9.242;2023-04-03T14:39:34;4.90;;;1.55;;
21501;SDS011;27639;48.674;9.242;2023-04-03T14:41:59;4.03;;;1.75;;
21501;SDS011;27639;48.674;9.242;2023-04-03T14:44:25;4.18;;;1.77;;
21501;SDS011;27639;48.674;9.242;2023-04-03T14:46:51;3.67;;;1.58;;
21501;SDS011;27639;48.674;9.242;2023-04-03T14:49:21;4.60;;;2.03;;
21501;SDS011;27639;48.674;9.242;2023-04-03T14:51:50;4.28;;;1.95;;
21501;SDS011;27639;48.674;9.242;2023-04-03T14:54:17;3.72;;;2.00;;
21501;SDS011;27639;48.674;9.242;2023-04-03T14:56:46;3.97;;;1.83;;
21501;SDS011;27639;48.674;9.242;2023-04-03T14:59:13;3.75;;;1.85;;
21501;SDS011;27639;48.674;9.242;2023-04-03T15:01:39;3.80;;;1.80;;
21501;SDS011;27639;48.674;9.242;2023-04-03T15:04:15;4.68;;;2.13;;
21501;SDS011;27639;48.674;9.242;2023-04-03T15:06:43;3.88;;;1.95;;
21501;SDS011;27639;48.674;9.242;2023-04-03T15:09:20;3.45;;;1.95;;
21501;SDS011;27639;48.674;9.242;2023-04-03T15:11:46;8.52;;;2.50;;
21501;SDS011;27639;48.674;9.242;2023-04-03T15:14:12;3.50;;;2.05;;
21501;SDS011;27639;48.674;9.242;2023-04-03T15:16:38;6.38;;;2.72;;
21501;SDS011;27639;48.674;9.242;2023-04-03T15:19:03;4.13;;;2.35;;
21501;SDS011;27639;48.674;9.242;2023-04-03T15:21:29;4.63;;;2.17;;
21501;SDS011;27639;48.674;9.242;2023-04-03T15:23:55;4.35;;;2.00;;
21501;SDS011;27639;48.674;9.242;2023-04-03T15:26:20;4.75;;;1.95;;
21501;SDS011;27639;48.674;9.242;2023-04-03T15:28:46;4.25;;;1.80;;
21501;SDS011;27639;48.674;9.242;2023-04-03T15:31:12;4.05;;;2.10;;
21501;SDS011;27639;48.674;9.242;2023-04-03T15:33:38;4.68;;;2.17;;
21501;SDS011;27639;48.674;9.242;2023-04-03T15:36:04;5.03;;;2.05;;
21501;SDS011;27639;48.674;9.242;2023-04-03T15:38:30;4.57;;;2.00;;
21501;SDS011;27639;48.674;9.242;2023-04-03T15:40:56;3.42;;;1.75;;
21501;SDS011;27639;48.674;9.242;2023-04-03T15:43:21;3.30;;;1.88;;
21501;SDS011;27639;48.674;9.242;2023-04-03T15:45:47;3.83;;;1.70;;
21501;SDS011;27639;48.674;9.242;2023-04-03T15:48:14;3.83;;;1.70;;
21501;SDS011;27639;48.674;9.242;2023-04-03T15:50:41;3.65;;;1.90;;
21501;SDS011;27639;48.674;9.242;2023-04-03T15:53:07;3.65;;;1.83;;
21501;SDS011;27639;48.674;9.242;2023-04-03T15:55:34;3.80;;;1.90;;
21501;SDS011;27639;48.674;9.242;2023-04-03T15:58:01;4.03;;;1.90;;
21501;SDS011;27639;48.674;9.242;2023-04-03T16:00:27;3.67;;;1.80;;
21501;SDS011;27639;48.674;9.242;2023-04-03T16:03:01;4.30;;;1.73;;
21501;SDS011;27639;48.674;9.242;2023-04-03T16:05:30;3.15;;;1.55;;
21501;SDS011;27639;48.674;9.242;2023-04-03T16:07:56;3.70;;;1.95;;
21501;SDS011;27639;48.674;9.242;2023-04-03T16:10:24;4.68;;;1.90;;
21501;SDS011;27639;48.674;9.242;2023-04-03T16:12:49;4.15;;;1.80;;
21501;SDS011;27639;48.674;9.242;2023-04-03T16:15:15;3.88;;;1.98;;
21501;SDS011;27639;48.674;9.242;2023-04-03T16:17:41;3.92;;;1.85;;
21501;SDS011;27639;48.674;9.242;2023-04-03T16:20:07;4.25;;;2.40;;
21501;SDS011;27639;48.674;9.242;2023-04-03T16:22:34;4.82;;;2.00;;
21501;SDS011;27639;48.674;9.242;2023-04-03T16:25:00;4.65;;;2.45;;
21501;SDS011;27639;48.674;9.242;2023-04-03T16:27:26;3.20;;;1.73;;
21501;SDS011;27639;48.674;9.242;2023-04-03T16:29:55;3.72;;;1.58;;
21501;SDS011;27639;48.674;9.242;2023-04-03T16:32:24;4.50;;;1.92;;
21501;SDS011;27639;48.674;9.242;2023-04-03T16:34:53;3.88;;;1.83;;
21501;SDS011;27639;48.674;9.242;2023-04-03T16:37:19;4.10;;;1.95;;
21501;SDS011;27639;48.674;9.242;2023-04-03T16:39:45;5.40;;;2.00;;
21501;SDS011;27639;48.674;9.242;2023-04-03T16:42:10;4.22;;;2.05;;
21501;SDS011;27639;48.674;9.242;2023-04-03T16:44:36;3.28;;;1.65;;
21501;SDS011;27639;48.674;9.242;2023-04-03T16:47:02;4.65;;;2.03;;